Time;durP1;ratioP1;P1;durP2;ratioP2;P2;SDS_P1;SDS_P2;PMS_P1;PMS_P2;Temp;Humidity;BMP_temperature;BMP_pressure;BME280_temperature;BME280_humidity;BME280_pressure;Samples;Min_cycle;Max_cycle;Signal;HPM_P1;HPM_P2
2022/11/17 00:00:26;;;;;;;;;;;;;;;12.00;68.60;99468.63;5043859;28;19917;-80
2022/11/17 00:03:14;;;;;;;;;;;;;;;11.84;69.64;99458.91;5053468;28;19917;-80
2022/11/17 00:06:05;;;;;;;;;;;;;;;11.78;69.85;99469.31;5040008;28;19917;-79
2022/11/17 00:08:51;;;;;;;;;;;;;;;11.72;69.24;99467.97;5043798;28;19916;-80
2022/11/17 00:14:40;;;;;;;;;;;;;;;11.80;68.68;99474.38;5038558;28;19916;-79
2022/11/17 00:17:24;;;;;;;;;;;;;;;11.88;68.11;99470.69;5053738;28;19921;-79
2022/11/17 00:23:12;;;;;;;;;;;;;;;11.72;67.52;99462.50;5039490;28;19924;-80
2022/11/17 00:26:00;;;;;;;;;;;;;;;11.56;67.99;99453.56;5050571;28;20412;-80
2022/11/17 00:28:45;;;;;;;;;;;;;;;11.59;68.11;99445.47;5051916;28;19916;-77
2022/11/17 00:34:33;;;;;;;;;;;;;;;11.65;68.88;99442.47;5041641;28;19916;-78
2022/11/17 00:37:18;;;;;;;;;;;;;;;11.52;68.54;99448.03;5043727;28;19921;-78
2022/11/17 00:40:03;;;;;;;;;;;;;;;11.34;68.48;99452.25;5050193;28;19925;-78
2022/11/17 00:42:47;;;;;;;;;;;;;;;11.18;68.38;99453.38;5045411;28;20285;-78
2022/11/17 00:45:32;;;;;;;;;;;;;;;11.00;69.28;99448.28;5051516;28;19917;-77
2022/11/17 00:48:16;;;;;;;;;;;;;;;11.07;69.45;99451.16;5041560;28;20380;-77
2022/11/17 00:51:04;;;;;;;;;;;;;;;11.15;69.60;99444.78;5055489;28;19917;-77
2022/11/17 00:53:48;;;;;;;;;;;;;;;11.07;69.64;99448.44;5054540;28;19976;-78
2022/11/17 00:56:33;;;;;;;;;;;;;;;11.06;70.04;99452.31;5047271;28;19920;-78
2022/11/17 00:59:17;;;;;;;;;;;;;;;10.85;70.79;99454.47;5041799;28;19917;-77
2022/11/17 01:02:02;;;;;;;;;;;;;;;10.76;71.34;99453.84;5033681;28;19936;-78
2022/11/17 01:04:47;;;;;;;;;;;;;;;10.77;71.59;99449.19;5038517;28;20385;-77
2022/11/17 01:07:31;;;;;;;;;;;;;;;10.95;70.94;99453.97;5053802;28;19916;-77
2022/11/17 01:10:16;;;;;;;;;;;;;;;11.14;69.76;99453.28;5052468;28;19917;-79
2022/11/17 01:13:00;;;;;;;;;;;;;;;11.08;69.89;99462.84;5053819;28;19917;-77
2022/11/17 01:15:44;;;;;;;;;;;;;;;11.23;69.13;99470.22;5053646;28;19920;-78
2022/11/17 01:18:29;;;;;;;;;;;;;;;11.25;68.46;99472.59;5053595;28;19916;-78
2022/11/17 01:21:15;;;;;;;;;;;;;;;11.00;68.77;99471.97;5053635;28;20301;-78
2022/11/17 01:24:00;;;;;;;;;;;;;;;10.95;69.81;99469.50;5053388;28;19917;-78
2022/11/17 01:26:44;;;;;;;;;;;;;;;11.03;70.09;99469.31;5039287;28;19917;-78
2022/11/17 01:29:29;;;;;;;;;;;;;;;10.82;70.93;99468.75;5045438;28;19917;-77
2022/11/17 01:32:13;;;;;;;;;;;;;;;10.58;72.59;99471.56;5053780;28;19921;-78
2022/11/17 01:34:57;;;;;;;;;;;;;;;10.54;73.02;99463.31;5053406;28;19917;-78
2022/11/17 01:37:43;;;;;;;;;;;;;;;10.82;72.11;99452.44;5052924;28;20388;-78
2022/11/17 01:40:27;;;;;;;;;;;;;;;10.88;71.67;99456.47;5043593;28;19917;-78
2022/11/17 01:43:12;;;;;;;;;;;;;;;11.14;71.10;99456.81;5053023;28;19917;-79
2022/11/17 01:45:57;;;;;;;;;;;;;;;11.07;70.70;99464.00;5035019;28;19929;-78
2022/11/17 01:48:43;;;;;;;;;;;;;;;11.17;70.62;99474.38;5044802;28;20397;-78
2022/11/17 01:51:29;;;;;;;;;;;;;;;11.03;70.19;99471.25;5052525;28;19917;-79
2022/11/17 01:54:16;;;;;;;;;;;;;;;10.85;70.03;99457.19;5044139;28;19925;-78
2022/11/17 01:57:04;;;;;;;;;;;;;;;10.87;70.85;99454.91;5053130;28;19921;-79
2022/11/17 01:59:52;;;;;;;;;;;;;;;10.93;71.04;99458.94;5052946;28;20381;-78
2022/11/17 02:02:38;;;;;;;;;;;;;;;10.84;72.35;99466.47;5052875;28;19916;-78
2022/11/17 02:05:32;;;;;;;;;;;;;;;10.91;72.72;99465.91;5053252;28;19917;-78
2022/11/17 02:08:19;;;;;;;;;;;;;;;10.99;73.75;99473.09;5040781;28;19917;-78
2022/11/17 02:11:07;;;;;;;;;;;;;;;11.12;74.05;99485.50;5057118;28;19917;-78
2022/11/17 02:13:53;;;;;;;;;;;;;;;10.94;73.72;99476.84;5047987;28;19917;-79
2022/11/17 02:16:37;;;;;;;;;;;;;;;11.08;73.72;99490.84;5056558;28;19921;-79
2022/11/17 02:19:24;;;;;;;;;;;;;;;11.19;72.82;99493.84;5048144;28;19917;-79
2022/11/17 02:22:27;;;;;;;;;;;;;;;11.18;71.98;99480.56;5056626;28;19917;-79
2022/11/17 02:25:24;;;;;;;;;;;;;;;10.92;71.17;99476.41;5056399;28;20317;-79
2022/11/17 02:28:28;;;;;;;;;;;;;;;10.81;71.15;99472.63;5047748;28;19917;-79
2022/11/17 02:31:13;;;;;;;;;;;;;;;10.81;70.90;99482.72;5048329;28;20308;-78
2022/11/17 02:34:05;;;;;;;;;;;;;;;10.81;70.49;99480.78;5048198;28;19917;-79
2022/11/17 02:36:52;;;;;;;;;;;;;;;10.90;70.33;99470.53;5055874;28;19921;-79
2022/11/17 02:40:01;;;;;;;;;;;;;;;10.77;70.37;99479.88;5027937;28;20297;-79
2022/11/17 02:46:13;;;;;;;;;;;;;;;10.98;69.68;99472.31;5055706;28;19917;-79
2022/11/17 02:49:01;;;;;;;;;;;;;;;11.04;69.28;99470.91;5035988;28;19917;-78
2022/11/17 02:51:51;;;;;;;;;;;;;;;10.78;68.68;99457.00;5035555;28;19918;-78
2022/11/17 02:54:36;;;;;;;;;;;;;;;10.47;69.61;99456.88;5036961;28;20313;-79
2022/11/17 02:57:30;;;;;;;;;;;;;;;10.65;69.98;99456.25;5055794;28;20409;-79
2022/11/17 03:00:18;;;;;;;;;;;;;;;10.66;69.50;99457.84;5047481;28;19917;-78
2022/11/17 03:03:16;;;;;;;;;;;;;;;10.94;68.83;99449.66;5055274;28;20305;-79
2022/11/17 03:06:13;;;;;;;;;;;;;;;10.91;67.99;99444.94;5043294;28;20385;-78
2022/11/17 03:09:00;;;;;;;;;;;;;;;10.68;67.85;99435.75;5055737;28;20375;-78
2022/11/17 03:11:52;;;;;;;;;;;;;;;10.66;67.72;99433.38;5055415;28;19916;-79
2022/11/17 03:14:56;;;;;;;;;;;;;;;10.68;67.31;99433.03;5046595;28;20293;-78
2022/11/17 03:17:48;;;;;;;;;;;;;;;10.68;67.31;99431.09;5035686;28;19925;-78
2022/11/17 03:20:43;;;;;;;;;;;;;;;10.62;67.84;99434.41;5034859;28;19917;-78
2022/11/17 03:23:32;;;;;;;;;;;;;;;10.53;67.92;99422.91;5022657;28;19917;-79
2022/11/17 03:26:22;;;;;;;;;;;;;;;10.47;68.18;99429.72;5028210;28;20409;-79
2022/11/17 03:29:11;;;;;;;;;;;;;;;10.40;68.24;99435.75;5044268;28;19917;-78
2022/11/17 03:31:57;;;;;;;;;;;;;;;10.32;68.75;99444.81;5055166;28;19917;-78
2022/11/17 03:34:44;;;;;;;;;;;;;;;10.33;68.31;99443.69;5055064;28;19920;-78
2022/11/17 03:37:30;;;;;;;;;;;;;;;10.34;67.77;99448.00;5054689;28;19921;-78
2022/11/17 03:40:18;;;;;;;;;;;;;;;10.38;67.92;99443.44;5046712;28;19917;-78
2022/11/17 03:43:05;;;;;;;;;;;;;;;10.37;68.07;99441.06;5040561;28;19917;-78
2022/11/17 03:45:52;;;;;;;;;;;;;;;10.15;68.77;99440.44;5075008;28;19916;-78
2022/11/17 03:48:49;;;;;;;;;;;;;;;10.03;69.60;99448.59;5047725;28;19921;-78
2022/11/17 03:51:34;;;;;;;;;;;;;;;9.96;69.77;99436.72;5054645;28;20377;-78
2022/11/17 03:54:19;;;;;;;;;;;;;;;10.05;69.51;99431.97;5046482;28;19916;-78
2022/11/17 03:57:13;;;;;;;;;;;;;;;10.36;68.75;99434.06;5046068;28;19924;-78
2022/11/17 04:00:05;;;;;;;;;;;;;;;10.55;67.60;99426.84;5046185;28;19917;-78
2022/11/17 04:02:59;;;;;;;;;;;;;;;10.64;67.21;99418.53;5061377;28;19917;-79
2022/11/17 04:05:44;;;;;;;;;;;;;;;10.69;67.01;99419.09;5040922;28;19921;-78
2022/11/17 04:08:29;;;;;;;;;;;;;;;10.62;67.22;99431.69;5050007;28;19917;-78
2022/11/17 04:17:20;;;;;;;;;;;;;;;10.38;67.50;99446.16;5046048;28;19917;-79
2022/11/17 04:20:05;;;;;;;;;;;;;;;10.38;67.57;99459.75;5045845;28;19917;-79
2022/11/17 04:23:05;;;;;;;;;;;;;;;10.44;67.44;99465.75;5044188;28;19917;-78
2022/11/17 04:28:54;;;;;;;;;;;;;;;10.46;68.60;99458.03;5044546;28;19920;-77
2022/11/17 04:31:39;;;;;;;;;;;;;;;10.44;68.69;99468.44;5045353;28;19917;-77
2022/11/17 04:34:23;;;;;;;;;;;;;;;10.42;69.20;99482.38;5045249;28;20385;-77
2022/11/17 04:37:16;;;;;;;;;;;;;;;10.28;69.85;99482.75;5053880;28;19921;-78
2022/11/17 04:40:00;;;;;;;;;;;;;;;10.21;70.44;99487.97;5045631;28;19917;-77
2022/11/17 04:42:46;;;;;;;;;;;;;;;10.20;71.34;99480.97;5040219;28;19917;-77
2022/11/17 04:45:33;;;;;;;;;;;;;;;10.31;71.36;99481.28;5053733;28;20699;-77
2022/11/17 04:48:17;;;;;;;;;;;;;;;10.37;71.72;99479.09;5053638;28;20381;-77
2022/11/17 04:51:02;;;;;;;;;;;;;;;10.45;71.73;99472.75;5040258;28;20340;-77
2022/11/17 04:53:47;;;;;;;;;;;;;;;10.50;71.63;99475.22;5044716;28;19917;-76
2022/11/17 04:56:32;;;;;;;;;;;;;;;10.43;72.26;99456.00;5048667;28;19921;-76
2022/11/17 04:59:17;;;;;;;;;;;;;;;10.44;72.34;99452.16;5050229;28;20289;-78
2022/11/17 05:02:03;;;;;;;;;;;;;;;10.32;72.63;99455.69;5035138;28;19917;-76
2022/11/17 05:04:56;;;;;;;;;;;;;;;10.24;71.85;99443.03;5042379;28;19917;-76
2022/11/17 05:07:42;;;;;;;;;;;;;;;10.24;72.16;99430.25;5044740;28;20397;-76
2022/11/17 05:13:29;;;;;;;;;;;;;;;10.17;71.98;99435.47;5044187;28;19917;-77
2022/11/17 05:19:19;;;;;;;;;;;;;;;10.13;72.48;99450.06;5041951;28;19921;-79
2022/11/17 05:25:08;;;;;;;;;;;;;;;10.25;72.16;99453.56;5044831;28;19916;-78
2022/11/17 05:27:53;;;;;;;;;;;;;;;10.27;73.18;99448.56;5049878;28;19917;-78
2022/11/17 05:30:37;;;;;;;;;;;;;;;10.23;72.25;99441.44;5039400;28;20369;-78
2022/11/17 05:33:21;;;;;;;;;;;;;;;10.27;72.23;99437.69;5030100;28;19917;-78
2022/11/17 05:36:06;;;;;;;;;;;;;;;10.25;72.07;99436.47;5053564;28;19917;-77
2022/11/17 05:38:51;;;;;;;;;;;;;;;10.25;71.92;99433.75;5053456;28;19916;-80
2022/11/17 05:41:36;;;;;;;;;;;;;;;10.26;72.75;99430.69;5037949;28;19921;-77
2022/11/17 05:44:20;;;;;;;;;;;;;;;10.31;72.77;99431.59;5051043;28;19917;-78
2022/11/17 05:47:05;;;;;;;;;;;;;;;10.27;72.07;99432.28;5039541;28;19920;-79
2022/11/17 05:49:49;;;;;;;;;;;;;;;10.21;72.32;99433.63;5055001;28;19928;-77
2022/11/17 05:52:33;;;;;;;;;;;;;;;10.17;71.89;99438.19;5054727;28;19921;-77
2022/11/17 05:55:18;;;;;;;;;;;;;;;10.19;72.75;99435.13;5054275;28;19917;-78
2022/11/17 05:58:07;;;;;;;;;;;;;;;10.24;72.43;99443.03;5037830;28;19921;-77
2022/11/17 06:00:53;;;;;;;;;;;;;;;10.26;72.00;99446.97;5044699;28;19924;-77
2022/11/17 06:03:40;;;;;;;;;;;;;;;10.19;73.00;99460.38;5045688;28;19917;-77
2022/11/17 06:06:24;;;;;;;;;;;;;;;10.18;72.56;99450.63;5031380;28;19920;-78
2022/11/17 06:09:09;;;;;;;;;;;;;;;10.20;72.60;99461.16;5052156;28;19917;-78
2022/11/17 06:11:54;;;;;;;;;;;;;;;10.26;72.35;99452.41;5038837;28;20300;-77
2022/11/17 06:14:38;;;;;;;;;;;;;;;10.35;75.14;99454.22;5039715;28;19916;-79
2022/11/17 06:17:23;;;;;;;;;;;;;;;10.31;72.63;99445.94;5043050;28;20301;-77
2022/11/17 06:20:11;;;;;;;;;;;;;;;10.37;72.63;99441.06;5042061;28;19917;-78
2022/11/17 06:22:56;;;;;;;;;;;;;;;10.56;72.11;99454.84;5044689;28;19917;-80
2022/11/17 06:25:41;;;;;;;;;;;;;;;10.63;71.82;99447.66;5046011;28;19920;-78
2022/11/17 06:28:27;;;;;;;;;;;;;;;10.72;71.37;99444.78;5037796;28;19917;-78
2022/11/17 06:31:13;;;;;;;;;;;;;;;10.60;71.91;99453.00;5039099;28;19925;-78
2022/11/17 06:33:59;;;;;;;;;;;;;;;10.58;71.50;99468.84;5035146;28;19921;-79
2022/11/17 06:36:43;;;;;;;;;;;;;;;10.57;71.32;99465.34;5033890;28;19921;-78
2022/11/17 06:39:28;;;;;;;;;;;;;;;10.60;71.53;99464.66;5036972;28;19917;-78
2022/11/17 06:42:12;;;;;;;;;;;;;;;10.57;71.49;99445.53;5036550;28;20295;-80
2022/11/17 06:44:56;;;;;;;;;;;;;;;10.44;71.88;99446.72;5040212;28;19917;-79
2022/11/17 06:47:41;;;;;;;;;;;;;;;10.31;72.47;99450.63;5039432;28;19921;-78
2022/11/17 06:50:25;;;;;;;;;;;;;;;10.38;72.49;99443.44;5033781;28;19925;-77
2022/11/17 06:53:11;;;;;;;;;;;;;;;10.37;72.63;99441.06;5034723;28;19917;-77
2022/11/17 06:56:07;;;;;;;;;;;;;;;10.33;73.04;99437.47;5022556;28;19917;-78
2022/11/17 06:58:53;;;;;;;;;;;;;;;10.46;72.79;99420.00;5051785;28;19925;-76
2022/11/17 07:01:37;;;;;;;;;;;;;;;10.52;72.39;99410.44;5056148;28;19916;-78
2022/11/17 07:04:21;;;;;;;;;;;;;;;10.46;72.79;99407.19;5024882;28;20394;-78
2022/11/17 07:07:06;;;;;;;;;;;;;;;10.53;72.92;99410.09;5029030;28;19917;-77
2022/11/17 07:09:50;;;;;;;;;;;;;;;10.52;72.68;99421.31;5036851;28;19917;-76
2022/11/17 07:12:35;;;;;;;;;;;;;;;10.51;72.96;99417.03;5035336;28;19921;-77
2022/11/17 07:15:19;;;;;;;;;;;;;;;10.52;72.96;99432.19;5052872;28;19925;-78
2022/11/17 07:18:04;;;;;;;;;;;;;;;10.51;73.33;99430.63;5052763;28;19924;-76
2022/11/17 07:20:48;;;;;;;;;;;;;;;10.52;72.84;99434.91;5037868;28;19917;-76
2022/11/17 07:23:33;;;;;;;;;;;;;;;10.60;72.88;99434.75;5050985;28;19917;-78
2022/11/17 07:26:18;;;;;;;;;;;;;;;10.67;72.40;99439.59;5057480;28;19916;-78
2022/11/17 07:29:02;;;;;;;;;;;;;;;10.74;72.22;99447.94;5040528;28;19917;-77
2022/11/17 07:31:47;;;;;;;;;;;;;;;10.71;71.99;99459.53;5052134;28;20377;-77
2022/11/17 07:34:31;;;;;;;;;;;;;;;10.69;72.04;99459.06;5027211;28;19917;-78
2022/11/17 07:37:16;;;;;;;;;;;;;;;10.65;71.93;99458.19;5035793;28;19921;-77
2022/11/17 07:40:00;;;;;;;;;;;;;;;10.62;72.44;99458.88;5038712;28;19917;-78
2022/11/17 07:42:48;;;;;;;;;;;;;;;10.69;72.29;99464.50;5054601;28;19917;-77
2022/11/17 07:45:34;;;;;;;;;;;;;;;10.70;72.16;99464.19;5043011;28;19917;-79
2022/11/17 07:48:19;;;;;;;;;;;;;;;10.67;72.29;99462.13;5036216;28;19925;-78
2022/11/17 07:51:04;;;;;;;;;;;;;;;10.69;72.64;99464.50;5044597;28;20405;-79
2022/11/17 07:53:48;;;;;;;;;;;;;;;10.70;72.98;99472.34;5043558;28;19916;-78
2022/11/17 07:56:33;;;;;;;;;;;;;;;10.69;73.74;99468.03;5054715;28;19916;-78
2022/11/17 07:59:17;;;;;;;;;;;;;;;10.66;74.10;99463.28;5055026;28;19916;-77
2022/11/17 08:02:02;;;;;;;;;;;;;;;10.58;74.40;99458.78;5043534;28;19916;-78
2022/11/17 08:04:46;;;;;;;;;;;;;;;10.56;75.18;99460.28;5054191;28;19917;-79
2022/11/17 08:07:31;;;;;;;;;;;;;;;10.50;76.02;99467.09;5032804;28;20393;-77
2022/11/17 08:10:15;;;;;;;;;;;;;;;10.62;77.25;99469.75;5052189;28;19920;-78
2022/11/17 08:13:00;;;;;;;;;;;;;;;11.42;73.88;99473.06;5050558;28;20369;-77
2022/11/17 08:15:44;;;;;;;;;;;;;;;11.47;73.04;99474.75;5021279;28;20106;-74
2022/11/17 08:18:30;;;;;;;;;;;;;;;11.74;73.15;99479.31;5048918;28;19920;-76
2022/11/17 08:21:14;;;;;;;;;;;;;;;12.03;72.91;99482.72;5051460;28;19917;-77
2022/11/17 08:23:59;;;;;;;;;;;;;;;12.64;71.55;99480.13;5051449;28;19917;-77
2022/11/17 08:26:43;;;;;;;;;;;;;;;12.48;70.31;99473.94;5047783;28;19917;-77
2022/11/17 08:29:30;;;;;;;;;;;;;;;12.86;70.07;99487.56;5022579;28;19916;-76
2022/11/17 08:32:15;;;;;;;;;;;;;;;12.73;69.90;99488.88;5050653;28;19921;-77
2022/11/17 08:34:59;;;;;;;;;;;;;;;12.28;70.58;99489.50;5037323;28;20377;-76
2022/11/17 08:37:44;;;;;;;;;;;;;;;11.96;73.43;99495.03;5054556;28;19921;-77
2022/11/17 08:40:28;;;;;;;;;;;;;;;12.23;74.53;99492.50;5045279;28;19917;-76
2022/11/17 08:43:13;;;;;;;;;;;;;;;12.65;70.96;99490.66;5042704;28;20361;-75
2022/11/17 08:45:58;;;;;;;;;;;;;;;12.12;71.18;99489.53;5038244;28;19917;-76
2022/11/17 08:48:42;;;;;;;;;;;;;;;11.29;74.77;99490.59;5053486;28;19917;-77
2022/11/17 08:51:28;;;;;;;;;;;;;;;12.31;76.34;99496.97;5033683;28;20446;-78
2022/11/17 08:54:12;;;;;;;;;;;;;;;12.38;72.96;99506.09;5021567;28;20389;-76
2022/11/17 08:56:57;;;;;;;;;;;;;;;12.31;72.22;99507.84;5050877;28;19917;-75
2022/11/17 08:59:42;;;;;;;;;;;;;;;11.40;75.67;99515.38;5037742;28;19936;-77
2022/11/17 09:02:26;;;;;;;;;;;;;;;12.19;76.02;99513.44;5044138;28;19917;-75
2022/11/17 09:05:11;;;;;;;;;;;;;;;10.88;79.18;99507.38;5048782;28;19925;-74
2022/11/17 09:07:57;;;;;;;;;;;;;;;10.64;82.88;99506.34;5027449;28;19917;-76
2022/11/17 09:10:42;;;;;;;;;;;;;;;10.79;81.73;99507.53;5046362;28;19917;-77
2022/11/17 09:13:27;;;;;;;;;;;;;;;11.03;81.04;99501.97;5043008;28;19916;-75
2022/11/17 09:16:12;;;;;;;;;;;;;;;10.36;82.20;99510.16;5051724;28;19917;-77
2022/11/17 09:18:57;;;;;;;;;;;;;;;9.95;85.55;99506.56;5037114;28;19929;-78
2022/11/17 09:21:42;;;;;;;;;;;;;;;9.92;85.50;99504.50;5047160;28;19920;-76
2022/11/17 09:24:26;;;;;;;;;;;;;;;10.08;85.30;99505.41;5039240;28;19917;-78
2022/11/17 09:27:10;;;;;;;;;;;;;;;10.22;84.63;99511.28;5043139;28;19916;-78
2022/11/17 09:29:55;;;;;;;;;;;;;;;10.66;82.23;99519.59;5053042;28;20373;-77
2022/11/17 09:32:39;;;;;;;;;;;;;;;10.91;79.96;99529.25;5052338;28;19917;-78
2022/11/17 09:35:24;;;;;;;;;;;;;;;11.15;78.91;99525.59;5052119;28;19917;-79
2022/11/17 09:38:08;;;;;;;;;;;;;;;11.38;76.69;99520.38;5039946;28;20377;-80
2022/11/17 09:40:54;;;;;;;;;;;;;;;11.62;76.14;99522.16;5038531;28;19917;-80
2022/11/17 09:43:43;;;;;;;;;;;;;;;11.76;74.67;99523.34;5040404;28;20385;-78
2022/11/17 09:46:40;;;;;;;;;;;;;;;11.84;74.53;99519.63;5038338;28;19917;-79
2022/11/17 09:49:24;;;;;;;;;;;;;;;11.99;73.70;99535.16;5037658;28;19922;-79
2022/11/17 09:52:12;;;;;;;;;;;;;;;11.95;74.02;99523.41;5042853;28;19916;-79
2022/11/17 09:55:15;;;;;;;;;;;;;;;12.05;73.59;99530.25;5060066;28;19916;-79
2022/11/17 09:58:02;;;;;;;;;;;;;;;11.93;74.97;99527.63;5072075;28;19924;-78
2022/11/17 10:00:49;;;;;;;;;;;;;;;11.89;74.80;99527.53;5061048;28;19916;-81
2022/11/17 10:03:34;;;;;;;;;;;;;;;11.76;75.89;99526.06;5071814;28;19916;-78
2022/11/17 10:06:20;;;;;;;;;;;;;;;11.94;75.53;99529.19;5072362;28;20190;-79
2022/11/17 10:09:17;;;;;;;;;;;;;;;12.01;74.73;99523.91;5072695;28;19920;-80
2022/11/17 10:12:11;;;;;;;;;;;;;;;11.89;75.35;99519.34;5073163;28;19936;-81
2022/11/17 10:14:57;;;;;;;;;;;;;;;11.87;76.07;99515.41;5059225;28;19916;-79
2022/11/17 10:17:41;;;;;;;;;;;;;;;11.96;75.45;99513.28;5039114;28;20381;-78
2022/11/17 10:20:26;;;;;;;;;;;;;;;12.08;74.66;99520.59;5048547;28;19924;-79
2022/11/17 10:23:15;;;;;;;;;;;;;;;12.14;74.34;99505.53;5041330;28;20393;-80
2022/11/17 10:26:00;;;;;;;;;;;;;;;12.10;74.99;99510.91;5051106;28;19917;-79
2022/11/17 10:28:44;;;;;;;;;;;;;;;12.04;75.42;99503.38;5037800;28;19917;-79
2022/11/17 10:31:38;;;;;;;;;;;;;;;12.02;74.73;99505.66;5043365;28;19917;-79
2022/11/17 10:34:33;;;;;;;;;;;;;;;12.14;74.85;99500.84;5043748;28;19917;-80
2022/11/17 10:37:17;;;;;;;;;;;;;;;12.10;74.97;99499.19;5054102;28;19921;-78
2022/11/17 10:40:14;;;;;;;;;;;;;;;12.13;74.35;99484.88;5055694;28;19917;-80
2022/11/17 10:43:01;;;;;;;;;;;;;;;12.38;72.97;99484.28;5058577;28;19917;-79
2022/11/17 10:45:48;;;;;;;;;;;;;;;12.83;72.40;99472.72;5039406;28;19917;-78
2022/11/17 10:48:36;;;;;;;;;;;;;;;13.03;71.50;99461.78;5053733;28;19917;-78
2022/11/17 10:51:25;;;;;;;;;;;;;;;12.84;72.30;99462.63;5055333;28;19917;-79
2022/11/17 10:54:16;;;;;;;;;;;;;;;12.44;73.45;99455.56;5055026;28;19921;-79
2022/11/17 10:57:00;;;;;;;;;;;;;;;12.26;75.34;99454.41;5055003;28;19917;-80
2022/11/17 10:59:48;;;;;;;;;;;;;;;12.44;74.24;99455.56;5041876;28;19921;-79
2022/11/17 11:02:34;;;;;;;;;;;;;;;12.36;75.27;99466.69;5060255;28;19920;-80
2022/11/17 11:05:20;;;;;;;;;;;;;;;12.54;75.06;99465.13;5058647;28;20301;-79
2022/11/17 11:08:13;;;;;;;;;;;;;;;12.60;74.14;99462.88;5042738;28;19917;-80
2022/11/17 11:10:58;;;;;;;;;;;;;;;12.50;75.03;99469.72;5040368;28;19917;-79
2022/11/17 11:13:55;;;;;;;;;;;;;;;12.68;74.68;99464.63;5055559;28;19917;-79
2022/11/17 11:16:39;;;;;;;;;;;;;;;12.81;73.64;99468.78;5052103;28;19917;-80
2022/11/17 11:19:24;;;;;;;;;;;;;;;12.86;73.37;99463.81;5053218;28;20381;-79
2022/11/17 11:22:21;;;;;;;;;;;;;;;12.94;73.26;99456.56;5041672;28;19917;-79
2022/11/17 11:25:08;;;;;;;;;;;;;;;13.00;73.46;99452.41;5049795;28;19920;-78
2022/11/17 11:28:08;;;;;;;;;;;;;;;12.97;73.82;99446.84;5052093;28;19916;-81
2022/11/17 11:31:01;;;;;;;;;;;;;;;12.95;74.00;99441.78;5051763;28;19917;-78
2022/11/17 11:33:49;;;;;;;;;;;;;;;13.03;73.33;99442.69;5052433;28;20577;-78
2022/11/17 11:36:59;;;;;;;;;;;;;;;13.09;72.84;99457.63;5040490;28;19917;-78
2022/11/17 11:39:44;;;;;;;;;;;;;;;13.08;73.12;99451.38;5036742;28;19921;-78
2022/11/17 11:42:28;;;;;;;;;;;;;;;12.91;73.87;99440.09;5050167;28;19916;-78
2022/11/17 11:45:31;;;;;;;;;;;;;;;13.05;74.42;99440.38;5040593;28;19917;-78
2022/11/17 11:48:21;;;;;;;;;;;;;;;13.05;74.04;99438.47;5040122;28;19916;-78
2022/11/17 11:51:05;;;;;;;;;;;;;;;13.11;74.41;99433.47;5051264;28;19939;-78
2022/11/17 11:53:53;;;;;;;;;;;;;;;13.27;73.67;99431.44;5038016;28;19921;-78
2022/11/17 11:56:39;;;;;;;;;;;;;;;13.59;72.17;99423.78;5039796;28;20381;-78
2022/11/17 11:59:37;;;;;;;;;;;;;;;13.63;71.51;99425.41;5043868;28;20401;-78
2022/11/17 12:02:21;;;;;;;;;;;;;;;13.71;72.03;99424.34;5040460;28;20305;-79
2022/11/17 12:05:20;;;;;;;;;;;;;;;13.70;72.13;99439.19;5047565;28;19921;-79
2022/11/17 12:08:07;;;;;;;;;;;;;;;13.77;72.01;99434.97;5033837;28;20305;-79
2022/11/17 12:10:57;;;;;;;;;;;;;;;13.70;73.47;99428.25;5037949;28;20374;-78
2022/11/17 12:13:42;;;;;;;;;;;;;;;13.79;72.17;99425.25;5046101;28;19917;-78
2022/11/17 12:16:31;;;;;;;;;;;;;;;13.93;71.71;99419.19;5049878;28;19917;-79
2022/11/17 12:19:35;;;;;;;;;;;;;;;13.83;72.70;99423.34;5051561;28;20304;-79
2022/11/17 12:22:30;;;;;;;;;;;;;;;13.57;74.72;99434.25;5041346;28;19916;-77
2022/11/17 12:25:14;;;;;;;;;;;;;;;13.49;74.07;99438.84;5038453;28;19924;-80
2022/11/17 12:28:17;;;;;;;;;;;;;;;13.46;74.31;99427.88;5050308;28;19917;-80
2022/11/17 12:31:03;;;;;;;;;;;;;;;13.40;74.44;99430.13;5045537;28;19917;-78
2022/11/17 12:33:50;;;;;;;;;;;;;;;13.36;74.28;99439.41;5040155;28;20301;-81
2022/11/17 12:36:35;;;;;;;;;;;;;;;13.36;74.48;99434.69;5037869;28;19921;-79
2022/11/17 12:39:39;;;;;;;;;;;;;;;13.36;74.11;99429.25;5053296;28;19921;-78
2022/11/17 12:42:24;;;;;;;;;;;;;;;13.36;74.47;99431.22;5053004;28;19917;-76
2022/11/17 12:45:10;;;;;;;;;;;;;;;13.36;74.15;99434.69;5047635;28;19917;-77
2022/11/17 12:47:54;;;;;;;;;;;;;;;13.34;74.01;99438.97;5053772;28;19917;-76
2022/11/17 12:50:44;;;;;;;;;;;;;;;13.28;74.37;99438.47;5032784;28;19917;-76
2022/11/17 12:53:33;;;;;;;;;;;;;;;13.29;74.74;99445.53;5041058;28;19921;-76
2022/11/17 12:56:22;;;;;;;;;;;;;;;13.29;74.35;99434.59;5037141;28;19917;-77
2022/11/17 12:59:26;;;;;;;;;;;;;;;13.31;74.39;99435.00;5045238;28;19921;-78
2022/11/17 13:02:24;;;;;;;;;;;;;;;13.31;74.01;99439.72;5039729;28;20565;-77
2022/11/17 13:05:17;;;;;;;;;;;;;;;13.32;73.77;99439.31;5034996;28;19917;-77
2022/11/17 13:08:09;;;;;;;;;;;;;;;13.38;74.08;99432.41;5032888;28;19917;-77
2022/11/17 13:11:01;;;;;;;;;;;;;;;13.43;73.39;99426.63;5047088;28;19917;-77
2022/11/17 13:13:46;;;;;;;;;;;;;;;13.42;73.13;99418.81;5052037;28;19921;-77
2022/11/17 13:16:30;;;;;;;;;;;;;;;13.42;72.89;99416.88;5051788;28;19917;-77
2022/11/17 13:19:41;;;;;;;;;;;;;;;13.46;72.56;99414.22;5051586;28;19920;-78
2022/11/17 13:22:25;;;;;;;;;;;;;;;13.49;73.37;99422.44;5036392;28;19921;-77
2022/11/17 13:25:21;;;;;;;;;;;;;;;13.51;72.53;99424.81;5052930;28;19916;-78
2022/11/17 13:28:22;;;;;;;;;;;;;;;13.52;72.49;99424.44;5038522;28;19924;-77
2022/11/17 13:31:16;;;;;;;;;;;;;;;13.40;73.09;99424.66;5059136;28;20293;-78
2022/11/17 13:34:00;;;;;;;;;;;;;;;13.40;72.95;99429.31;5061002;28;19917;-77
2022/11/17 13:36:53;;;;;;;;;;;;;;;13.44;73.74;99424.69;5034843;28;19916;-78
2022/11/17 13:39:37;;;;;;;;;;;;;;;13.41;73.90;99415.28;5050572;28;19921;-77
2022/11/17 13:42:23;;;;;;;;;;;;;;;13.45;74.25;99410.69;5056117;28;19917;-77
2022/11/17 13:45:12;;;;;;;;;;;;;;;13.50;73.66;99406.84;5051062;28;19916;-77
2022/11/17 13:47:58;;;;;;;;;;;;;;;13.51;73.82;99411.94;5062697;28;19916;-77
2022/11/17 13:50:42;;;;;;;;;;;;;;;13.51;73.63;99405.72;5048523;28;19917;-77
2022/11/17 13:53:26;;;;;;;;;;;;;;;13.53;73.90;99420.56;5050913;28;19936;-77
2022/11/17 13:56:25;;;;;;;;;;;;;;;13.48;74.27;99423.59;5036921;28;19917;-77
2022/11/17 13:59:16;;;;;;;;;;;;;;;13.49;74.12;99411.53;5033609;28;20328;-77
2022/11/17 14:02:28;;;;;;;;;;;;;;;13.56;73.89;99406.16;5036007;28;20305;-77
2022/11/17 14:05:17;;;;;;;;;;;;;;;13.65;74.15;99403.97;5037895;28;20325;-77
2022/11/17 14:08:12;;;;;;;;;;;;;;;13.67;73.21;99390.72;5054836;28;19917;-77
2022/11/17 14:11:09;;;;;;;;;;;;;;;13.70;73.07;99384.53;5055475;28;19917;-77
2022/11/17 14:13:59;;;;;;;;;;;;;;;13.70;72.79;99384.53;5042532;28;19917;-77
2022/11/17 14:16:44;;;;;;;;;;;;;;;13.77;72.94;99393.97;5055687;28;19916;-77
2022/11/17 14:19:31;;;;;;;;;;;;;;;13.78;72.91;99398.28;5043613;28;20305;-77
2022/11/17 14:22:16;;;;;;;;;;;;;;;13.79;72.88;99402.59;5048731;28;19925;-78
2022/11/17 14:25:00;;;;;;;;;;;;;;;13.74;73.19;99411.13;5053294;28;19916;-77
2022/11/17 14:27:45;;;;;;;;;;;;;;;13.68;73.92;99430.56;5046391;28;19916;-78
2022/11/17 14:30:30;;;;;;;;;;;;;;;13.63;73.52;99430.88;5037918;28;19916;-77
2022/11/17 14:33:14;;;;;;;;;;;;;;;13.61;73.69;99418.75;5033729;28;20396;-77
2022/11/17 14:35:59;;;;;;;;;;;;;;;13.65;73.14;99417.63;5044259;28;19917;-77
2022/11/17 14:38:44;;;;;;;;;;;;;;;13.62;73.55;99414.84;5049356;28;19921;-77
2022/11/17 14:41:28;;;;;;;;;;;;;;;13.63;73.68;99410.94;5037799;28;19917;-77
2022/11/17 14:44:12;;;;;;;;;;;;;;;13.68;73.22;99418.84;5056607;28;19917;-78
2022/11/17 14:46:57;;;;;;;;;;;;;;;13.49;74.23;99430.66;5039823;28;19917;-77
2022/11/17 14:49:41;;;;;;;;;;;;;;;13.49;74.57;99414.25;5041549;28;19917;-77
2022/11/17 14:52:26;;;;;;;;;;;;;;;13.58;74.19;99422.97;5054606;28;19920;-77
2022/11/17 14:55:11;;;;;;;;;;;;;;;13.49;74.56;99421.66;5043198;28;19917;-77
2022/11/17 14:57:55;;;;;;;;;;;;;;;13.39;74.71;99420.34;5045420;28;19921;-76
2022/11/17 15:00:40;;;;;;;;;;;;;;;13.47;74.43;99427.47;5036806;28;20193;-77
2022/11/17 15:03:24;;;;;;;;;;;;;;;13.57;74.37;99437.00;5044589;28;19917;-77